sim
Sign-in with your pilot id or email,
or register
Callsign
Passwort

Schedule Details

Flight Number: OEO2493
Departure: Hamburg Airport (EDDH) at 04:55
Arrival: Munich Airport (EDDM) at 06:20

Weather Information
Getting current METAR information for EDDH 191350Z 10008KT 050V130 CAVOK 20/06 Q1022 NOSIG
Getting current METAR information for EDDM 191350Z VRB03KT CAVOK 22/12 Q1018 NOSIG

Schedule Frequency

Route Map